sensor_id;sensor_type;location;lat;lon;timestamp;P1;durP1;ratioP1;P2;durP2;ratioP2
49241;SDS011;35079;52.704;13.814;2023-01-09T00:00:20;21.40;;;14.60;;
49241;SDS011;35079;52.704;13.814;2023-01-09T00:02:46;22.50;;;15.05;;
49241;SDS011;35079;52.704;13.814;2023-01-09T00:05:13;19.60;;;14.35;;
49241;SDS011;35079;52.704;13.814;2023-01-09T00:07:40;22.33;;;14.98;;
49241;SDS011;35079;52.704;13.814;2023-01-09T00:10:06;23.83;;;15.13;;
49241;SDS011;35079;52.704;13.814;2023-01-09T00:12:33;21.33;;;14.68;;
49241;SDS011;35079;52.704;13.814;2023-01-09T00:15:00;24.92;;;15.75;;
49241;SDS011;35079;52.704;13.814;2023-01-09T00:17:26;23.05;;;15.52;;
49241;SDS011;35079;52.704;13.814;2023-01-09T00:19:52;21.65;;;15.02;;
49241;SDS011;35079;52.704;13.814;2023-01-09T00:22:18;24.65;;;15.25;;
49241;SDS011;35079;52.704;13.814;2023-01-09T00:24:43;21.90;;;14.48;;
49241;SDS011;35079;52.704;13.814;2023-01-09T00:27:09;24.88;;;15.93;;
49241;SDS011;35079;52.704;13.814;2023-01-09T00:29:35;23.02;;;15.27;;
49241;SDS011;35079;52.704;13.814;2023-01-09T00:32:01;24.35;;;15.38;;
49241;SDS011;35079;52.704;13.814;2023-01-09T00:34:26;23.67;;;15.60;;
49241;SDS011;35079;52.704;13.814;2023-01-09T00:36:52;23.08;;;15.45;;
49241;SDS011;35079;52.704;13.814;2023-01-09T00:39:20;23.27;;;15.70;;
49241;SDS011;35079;52.704;13.814;2023-01-09T00:41:48;24.00;;;15.93;;
49241;SDS011;35079;52.704;13.814;2023-01-09T00:46:47;24.08;;;15.48;;
49241;SDS011;35079;52.704;13.814;2023-01-09T00:49:20;25.85;;;15.52;;
49241;SDS011;35079;52.704;13.814;2023-01-09T00:51:46;22.20;;;15.02;;
49241;SDS011;35079;52.704;13.814;2023-01-09T00:54:14;24.90;;;16.02;;
49241;SDS011;35079;52.704;13.814;2023-01-09T00:56:42;21.38;;;15.90;;
49241;SDS011;35079;52.704;13.814;2023-01-09T00:59:08;21.88;;;15.38;;
49241;SDS011;35079;52.704;13.814;2023-01-09T01:01:34;23.33;;;15.38;;
49241;SDS011;35079;52.704;13.814;2023-01-09T01:03:59;24.45;;;16.10;;
49241;SDS011;35079;52.704;13.814;2023-01-09T01:06:45;24.98;;;15.70;;
49241;SDS011;35079;52.704;13.814;2023-01-09T01:12:51;25.17;;;15.70;;
49241;SDS011;35079;52.704;13.814;2023-01-09T01:15:17;20.77;;;15.27;;
49241;SDS011;35079;52.704;13.814;2023-01-09T01:17:43;21.88;;;14.68;;
49241;SDS011;35079;52.704;13.814;2023-01-09T01:20:14;21.83;;;15.00;;
49241;SDS011;35079;52.704;13.814;2023-01-09T01:22:42;23.83;;;15.43;;
49241;SDS011;35079;52.704;13.814;2023-01-09T01:25:08;23.00;;;15.00;;
49241;SDS011;35079;52.704;13.814;2023-01-09T01:27:35;23.05;;;14.77;;
49241;SDS011;35079;52.704;13.814;2023-01-09T01:30:01;19.52;;;13.52;;
49241;SDS011;35079;52.704;13.814;2023-01-09T01:32:26;21.92;;;15.00;;
49241;SDS011;35079;52.704;13.814;2023-01-09T01:34:52;25.00;;;15.82;;
49241;SDS011;35079;52.704;13.814;2023-01-09T01:37:18;23.65;;;15.02;;
49241;SDS011;35079;52.704;13.814;2023-01-09T01:42:54;23.38;;;14.50;;
49241;SDS011;35079;52.704;13.814;2023-01-09T01:45:24;24.85;;;14.40;;
49241;SDS011;35079;52.704;13.814;2023-01-09T01:53:52;24.02;;;15.27;;
49241;SDS011;35079;52.704;13.814;2023-01-09T02:01:54;21.50;;;14.40;;
49241;SDS011;35079;52.704;13.814;2023-01-09T02:04:23;23.02;;;14.38;;
49241;SDS011;35079;52.704;13.814;2023-01-09T02:06:50;23.50;;;15.77;;
49241;SDS011;35079;52.704;13.814;2023-01-09T02:09:34;22.65;;;15.35;;
49241;SDS011;35079;52.704;13.814;2023-01-09T02:12:12;24.63;;;16.27;;
49241;SDS011;35079;52.704;13.814;2023-01-09T02:17:28;22.23;;;14.93;;
49241;SDS011;35079;52.704;13.814;2023-01-09T02:20:55;24.35;;;15.63;;
49241;SDS011;35079;52.704;13.814;2023-01-09T02:40:08;22.23;;;14.82;;
49241;SDS011;35079;52.704;13.814;2023-01-09T02:42:39;24.38;;;15.82;;
49241;SDS011;35079;52.704;13.814;2023-01-09T02:45:07;25.20;;;15.80;;
49241;SDS011;35079;52.704;13.814;2023-01-09T02:47:38;22.92;;;15.88;;
49241;SDS011;35079;52.704;13.814;2023-01-09T02:50:08;23.57;;;15.83;;
49241;SDS011;35079;52.704;13.814;2023-01-09T02:55:08;23.85;;;16.02;;
49241;SDS011;35079;52.704;13.814;2023-01-09T03:00:39;23.52;;;15.50;;
49241;SDS011;35079;52.704;13.814;2023-01-09T03:05:55;26.35;;;15.45;;
49241;SDS011;35079;52.704;13.814;2023-01-09T03:08:38;22.67;;;15.38;;
49241;SDS011;35079;52.704;13.814;2023-01-09T03:11:07;24.70;;;15.45;;
49241;SDS011;35079;52.704;13.814;2023-01-09T03:13:49;24.25;;;15.57;;
49241;SDS011;35079;52.704;13.814;2023-01-09T03:16:19;25.55;;;16.55;;
49241;SDS011;35079;52.704;13.814;2023-01-09T03:18:49;23.95;;;15.48;;
49241;SDS011;35079;52.704;13.814;2023-01-09T03:21:16;23.83;;;16.25;;
49241;SDS011;35079;52.704;13.814;2023-01-09T03:23:47;24.20;;;16.33;;
49241;SDS011;35079;52.704;13.814;2023-01-09T03:26:14;24.73;;;16.50;;
49241;SDS011;35079;52.704;13.814;2023-01-09T03:28:40;25.42;;;16.42;;
49241;SDS011;35079;52.704;13.814;2023-01-09T03:31:06;25.05;;;16.15;;
49241;SDS011;35079;52.704;13.814;2023-01-09T03:33:32;22.63;;;16.25;;
49241;SDS011;35079;52.704;13.814;2023-01-09T03:35:58;25.10;;;16.30;;
49241;SDS011;35079;52.704;13.814;2023-01-09T03:38:24;26.15;;;16.50;;
49241;SDS011;35079;52.704;13.814;2023-01-09T03:40:49;25.17;;;16.05;;
49241;SDS011;35079;52.704;13.814;2023-01-09T03:43:15;25.38;;;16.90;;
49241;SDS011;35079;52.704;13.814;2023-01-09T03:45:41;23.55;;;16.20;;
49241;SDS011;35079;52.704;13.814;2023-01-09T03:48:07;24.05;;;15.43;;
49241;SDS011;35079;52.704;13.814;2023-01-09T03:50:33;26.48;;;16.90;;
49241;SDS011;35079;52.704;13.814;2023-01-09T03:52:59;25.63;;;16.98;;
49241;SDS011;35079;52.704;13.814;2023-01-09T03:55:25;23.52;;;15.75;;
49241;SDS011;35079;52.704;13.814;2023-01-09T03:57:50;25.90;;;16.70;;
49241;SDS011;35079;52.704;13.814;2023-01-09T04:00:17;26.60;;;17.35;;
49241;SDS011;35079;52.704;13.814;2023-01-09T04:02:43;22.35;;;15.40;;
49241;SDS011;35079;52.704;13.814;2023-01-09T04:05:09;24.85;;;17.45;;
49241;SDS011;35079;52.704;13.814;2023-01-09T04:07:35;26.17;;;17.10;;
49241;SDS011;35079;52.704;13.814;2023-01-09T04:10:00;26.40;;;16.35;;
49241;SDS011;35079;52.704;13.814;2023-01-09T04:12:27;23.02;;;15.43;;
49241;SDS011;35079;52.704;13.814;2023-01-09T04:14:52;26.10;;;15.80;;
49241;SDS011;35079;52.704;13.814;2023-01-09T04:17:18;23.30;;;15.95;;
49241;SDS011;35079;52.704;13.814;2023-01-09T04:19:43;23.50;;;16.17;;
49241;SDS011;35079;52.704;13.814;2023-01-09T04:22:09;24.23;;;15.30;;
49241;SDS011;35079;52.704;13.814;2023-01-09T04:24:35;22.63;;;14.77;;
49241;SDS011;35079;52.704;13.814;2023-01-09T04:27:00;23.50;;;15.65;;
49241;SDS011;35079;52.704;13.814;2023-01-09T04:29:26;22.92;;;15.88;;
49241;SDS011;35079;52.704;13.814;2023-01-09T04:31:52;22.38;;;15.52;;
49241;SDS011;35079;52.704;13.814;2023-01-09T04:34:18;25.80;;;15.52;;
49241;SDS011;35079;52.704;13.814;2023-01-09T04:36:49;24.27;;;15.50;;
49241;SDS011;35079;52.704;13.814;2023-01-09T04:39:16;23.48;;;15.20;;
49241;SDS011;35079;52.704;13.814;2023-01-09T04:41:41;22.77;;;15.27;;
49241;SDS011;35079;52.704;13.814;2023-01-09T04:44:13;22.80;;;14.43;;
49241;SDS011;35079;52.704;13.814;2023-01-09T04:46:39;20.17;;;14.32;;
49241;SDS011;35079;52.704;13.814;2023-01-09T04:49:05;23.88;;;15.38;;
49241;SDS011;35079;52.704;13.814;2023-01-09T04:51:30;21.73;;;14.77;;
49241;SDS011;35079;52.704;13.814;2023-01-09T04:53:56;24.77;;;15.50;;
49241;SDS011;35079;52.704;13.814;2023-01-09T04:56:22;23.65;;;14.88;;
49241;SDS011;35079;52.704;13.814;2023-01-09T04:58:47;22.30;;;14.93;;
49241;SDS011;35079;52.704;13.814;2023-01-09T05:01:13;19.85;;;13.73;;
49241;SDS011;35079;52.704;13.814;2023-01-09T05:03:39;17.75;;;13.48;;
49241;SDS011;35079;52.704;13.814;2023-01-09T05:06:04;20.20;;;14.02;;
49241;SDS011;35079;52.704;13.814;2023-01-09T05:08:30;21.38;;;14.18;;
49241;SDS011;35079;52.704;13.814;2023-01-09T05:10:56;19.58;;;13.45;;
49241;SDS011;35079;52.704;13.814;2023-01-09T05:13:21;21.20;;;13.48;;
49241;SDS011;35079;52.704;13.814;2023-01-09T05:15:47;20.83;;;13.95;;
49241;SDS011;35079;52.704;13.814;2023-01-09T05:18:13;22.40;;;13.50;;
49241;SDS011;35079;52.704;13.814;2023-01-09T05:20:39;18.75;;;13.32;;
49241;SDS011;35079;52.704;13.814;2023-01-09T05:23:05;20.95;;;14.00;;
49241;SDS011;35079;52.704;13.814;2023-01-09T05:25:30;18.15;;;12.57;;
49241;SDS011;35079;52.704;13.814;2023-01-09T05:27:56;19.95;;;12.77;;
49241;SDS011;35079;52.704;13.814;2023-01-09T05:30:21;20.10;;;12.85;;
49241;SDS011;35079;52.704;13.814;2023-01-09T05:32:47;20.52;;;13.70;;
49241;SDS011;35079;52.704;13.814;2023-01-09T05:35:13;18.85;;;12.75;;
49241;SDS011;35079;52.704;13.814;2023-01-09T05:37:38;17.92;;;12.43;;
49241;SDS011;35079;52.704;13.814;2023-01-09T05:40:04;19.65;;;13.25;;
49241;SDS011;35079;52.704;13.814;2023-01-09T05:42:30;20.50;;;12.82;;
49241;SDS011;35079;52.704;13.814;2023-01-09T05:44:56;20.58;;;13.18;;
49241;SDS011;35079;52.704;13.814;2023-01-09T05:47:21;20.98;;;13.15;;
49241;SDS011;35079;52.704;13.814;2023-01-09T05:49:47;17.67;;;11.88;;
49241;SDS011;35079;52.704;13.814;2023-01-09T05:52:13;20.17;;;12.73;;
49241;SDS011;35079;52.704;13.814;2023-01-09T05:54:38;18.27;;;12.38;;
49241;SDS011;35079;52.704;13.814;2023-01-09T05:57:04;20.08;;;12.77;;
49241;SDS011;35079;52.704;13.814;2023-01-09T05:59:30;20.13;;;13.00;;
49241;SDS011;35079;52.704;13.814;2023-01-09T06:01:55;20.35;;;13.80;;
49241;SDS011;35079;52.704;13.814;2023-01-09T06:04:21;20.15;;;13.35;;
49241;SDS011;35079;52.704;13.814;2023-01-09T06:06:46;20.67;;;13.27;;
49241;SDS011;35079;52.704;13.814;2023-01-09T06:09:12;17.98;;;12.38;;
49241;SDS011;35079;52.704;13.814;2023-01-09T06:11:38;19.00;;;13.00;;
49241;SDS011;35079;52.704;13.814;2023-01-09T06:14:04;23.35;;;14.02;;
49241;SDS011;35079;52.704;13.814;2023-01-09T06:16:30;23.42;;;14.75;;
49241;SDS011;35079;52.704;13.814;2023-01-09T06:18:55;23.00;;;14.10;;
49241;SDS011;35079;52.704;13.814;2023-01-09T06:21:21;22.92;;;14.07;;
49241;SDS011;35079;52.704;13.814;2023-01-09T06:23:47;24.20;;;14.85;;
49241;SDS011;35079;52.704;13.814;2023-01-09T06:26:13;21.08;;;14.05;;
49241;SDS011;35079;52.704;13.814;2023-01-09T06:28:38;22.20;;;14.50;;
49241;SDS011;35079;52.704;13.814;2023-01-09T06:31:04;21.98;;;14.77;;
49241;SDS011;35079;52.704;13.814;2023-01-09T06:33:30;22.70;;;14.07;;
49241;SDS011;35079;52.704;13.814;2023-01-09T06:35:56;23.95;;;14.68;;
49241;SDS011;35079;52.704;13.814;2023-01-09T06:38:21;22.15;;;13.93;;
49241;SDS011;35079;52.704;13.814;2023-01-09T06:40:47;18.15;;;12.82;;
49241;SDS011;35079;52.704;13.814;2023-01-09T06:43:14;20.67;;;13.13;;
49241;SDS011;35079;52.704;13.814;2023-01-09T06:45:41;21.20;;;13.65;;
49241;SDS011;35079;52.704;13.814;2023-01-09T06:48:07;21.42;;;13.70;;
49241;SDS011;35079;52.704;13.814;2023-01-09T06:50:33;21.50;;;13.73;;
49241;SDS011;35079;52.704;13.814;2023-01-09T06:52:59;19.52;;;12.88;;
49241;SDS011;35079;52.704;13.814;2023-01-09T06:55:25;22.13;;;14.13;;
49241;SDS011;35079;52.704;13.814;2023-01-09T06:57:51;24.48;;;14.45;;
49241;SDS011;35079;52.704;13.814;2023-01-09T07:02:47;21.15;;;13.60;;
49241;SDS011;35079;52.704;13.814;2023-01-09T07:05:12;20.88;;;14.38;;
49241;SDS011;35079;52.704;13.814;2023-01-09T07:07:38;26.88;;;14.80;;
49241;SDS011;35079;52.704;13.814;2023-01-09T07:10:05;24.67;;;15.32;;
49241;SDS011;35079;52.704;13.814;2023-01-09T07:12:32;21.52;;;13.48;;
49241;SDS011;35079;52.704;13.814;2023-01-09T07:14:58;22.40;;;13.85;;
49241;SDS011;35079;52.704;13.814;2023-01-09T07:17:24;25.88;;;14.95;;
49241;SDS011;35079;52.704;13.814;2023-01-09T07:19:49;23.80;;;14.98;;
49241;SDS011;35079;52.704;13.814;2023-01-09T07:22:15;20.95;;;13.52;;
49241;SDS011;35079;52.704;13.814;2023-01-09T07:24:42;22.45;;;13.40;;
49241;SDS011;35079;52.704;13.814;2023-01-09T07:27:11;21.88;;;13.73;;
49241;SDS011;35079;52.704;13.814;2023-01-09T07:29:37;21.80;;;13.55;;
49241;SDS011;35079;52.704;13.814;2023-01-09T07:32:03;22.65;;;13.55;;
49241;SDS011;35079;52.704;13.814;2023-01-09T07:34:29;23.25;;;14.52;;
49241;SDS011;35079;52.704;13.814;2023-01-09T07:36:54;24.92;;;14.18;;
49241;SDS011;35079;52.704;13.814;2023-01-09T07:39:20;25.83;;;14.65;;
49241;SDS011;35079;52.704;13.814;2023-01-09T07:41:46;22.88;;;13.63;;
49241;SDS011;35079;52.704;13.814;2023-01-09T07:44:12;21.17;;;13.20;;
49241;SDS011;35079;52.704;13.814;2023-01-09T07:46:38;22.92;;;14.32;;
49241;SDS011;35079;52.704;13.814;2023-01-09T07:49:15;21.15;;;13.15;;
49241;SDS011;35079;52.704;13.814;2023-01-09T07:51:41;21.55;;;13.15;;
49241;SDS011;35079;52.704;13.814;2023-01-09T07:54:08;20.92;;;13.52;;
49241;SDS011;35079;52.704;13.814;2023-01-09T07:56:35;20.55;;;13.07;;
49241;SDS011;35079;52.704;13.814;2023-01-09T07:59:01;21.30;;;13.80;;
49241;SDS011;35079;52.704;13.814;2023-01-09T08:01:26;22.75;;;13.13;;
49241;SDS011;35079;52.704;13.814;2023-01-09T08:03:52;20.30;;;12.70;;
49241;SDS011;35079;52.704;13.814;2023-01-09T08:06:18;20.90;;;13.48;;
49241;SDS011;35079;52.704;13.814;2023-01-09T08:08:43;19.58;;;12.27;;
49241;SDS011;35079;52.704;13.814;2023-01-09T08:11:09;21.73;;;13.13;;
49241;SDS011;35079;52.704;13.814;2023-01-09T08:13:34;26.35;;;14.27;;
49241;SDS011;35079;52.704;13.814;2023-01-09T08:16:00;21.15;;;13.30;;
49241;SDS011;35079;52.704;13.814;2023-01-09T08:18:26;27.08;;;14.75;;
49241;SDS011;35079;52.704;13.814;2023-01-09T08:20:51;19.17;;;12.80;;
49241;SDS011;35079;52.704;13.814;2023-01-09T08:23:17;19.50;;;12.73;;
49241;SDS011;35079;52.704;13.814;2023-01-09T08:25:43;20.20;;;12.18;;
49241;SDS011;35079;52.704;13.814;2023-01-09T08:28:08;18.30;;;12.15;;
49241;SDS011;35079;52.704;13.814;2023-01-09T08:30:34;19.42;;;11.63;;
49241;SDS011;35079;52.704;13.814;2023-01-09T08:33:00;19.00;;;12.15;;
49241;SDS011;35079;52.704;13.814;2023-01-09T08:35:26;17.75;;;11.50;;
49241;SDS011;35079;52.704;13.814;2023-01-09T08:37:52;17.38;;;12.10;;
49241;SDS011;35079;52.704;13.814;2023-01-09T08:40:17;17.35;;;12.40;;
49241;SDS011;35079;52.704;13.814;2023-01-09T08:42:43;19.00;;;12.43;;
49241;SDS011;35079;52.704;13.814;2023-01-09T08:45:28;21.30;;;12.65;;
49241;SDS011;35079;52.704;13.814;2023-01-09T08:48:12;18.00;;;11.52;;
49241;SDS011;35079;52.704;13.814;2023-01-09T08:50:38;19.58;;;12.40;;
49241;SDS011;35079;52.704;13.814;2023-01-09T08:53:04;17.50;;;11.57;;
49241;SDS011;35079;52.704;13.814;2023-01-09T08:55:29;17.65;;;11.75;;
49241;SDS011;35079;52.704;13.814;2023-01-09T08:57:55;17.20;;;11.85;;
49241;SDS011;35079;52.704;13.814;2023-01-09T09:00:22;19.20;;;12.05;;
49241;SDS011;35079;52.704;13.814;2023-01-09T09:02:51;17.08;;;11.68;;
49241;SDS011;35079;52.704;13.814;2023-01-09T09:05:18;18.98;;;12.07;;
49241;SDS011;35079;52.704;13.814;2023-01-09T09:07:48;16.15;;;11.82;;
49241;SDS011;35079;52.704;13.814;2023-01-09T09:10:15;20.95;;;13.07;;
49241;SDS011;35079;52.704;13.814;2023-01-09T09:12:42;18.23;;;11.88;;
49241;SDS011;35079;52.704;13.814;2023-01-09T09:15:08;18.33;;;12.50;;
49241;SDS011;35079;52.704;13.814;2023-01-09T09:17:38;18.25;;;11.65;;
49241;SDS011;35079;52.704;13.814;2023-01-09T09:20:05;16.52;;;10.85;;
49241;SDS011;35079;52.704;13.814;2023-01-09T09:22:31;19.60;;;11.93;;
49241;SDS011;35079;52.704;13.814;2023-01-09T09:24:57;18.92;;;11.70;;
49241;SDS011;35079;52.704;13.814;2023-01-09T09:27:22;21.65;;;13.73;;
49241;SDS011;35079;52.704;13.814;2023-01-09T09:29:48;29.85;;;18.77;;
49241;SDS011;35079;52.704;13.814;2023-01-09T09:32:14;21.52;;;13.32;;
49241;SDS011;35079;52.704;13.814;2023-01-09T09:34:40;20.45;;;12.95;;
49241;SDS011;35079;52.704;13.814;2023-01-09T09:37:05;19.17;;;13.48;;
49241;SDS011;35079;52.704;13.814;2023-01-09T09:39:31;27.75;;;17.52;;
49241;SDS011;35079;52.704;13.814;2023-01-09T09:47:21;18.73;;;12.18;;
49241;SDS011;35079;52.704;13.814;2023-01-09T09:52:50;18.42;;;12.02;;
49241;SDS011;35079;52.704;13.814;2023-01-09T09:55:40;20.08;;;12.20;;
49241;SDS011;35079;52.704;13.814;2023-01-09T09:58:28;20.33;;;12.15;;
49241;SDS011;35079;52.704;13.814;2023-01-09T10:01:01;22.60;;;12.32;;
49241;SDS011;35079;52.704;13.814;2023-01-09T10:03:36;20.90;;;12.02;;
49241;SDS011;35079;52.704;13.814;2023-01-09T10:06:11;18.00;;;11.90;;
49241;SDS011;35079;52.704;13.814;2023-01-09T10:08:51;23.25;;;13.23;;
49241;SDS011;35079;52.704;13.814;2023-01-09T10:14:13;22.10;;;13.20;;
49241;SDS011;35079;52.704;13.814;2023-01-09T10:19:47;19.58;;;12.38;;
49241;SDS011;35079;52.704;13.814;2023-01-09T10:38:40;19.60;;;12.55;;
49241;SDS011;35079;52.704;13.814;2023-01-09T10:41:12;22.58;;;13.52;;
49241;SDS011;35079;52.704;13.814;2023-01-09T10:43:50;22.65;;;12.88;;
49241;SDS011;35079;52.704;13.814;2023-01-09T10:46:32;20.58;;;12.82;;
49241;SDS011;35079;52.704;13.814;2023-01-09T10:49:04;21.40;;;12.43;;
49241;SDS011;35079;52.704;13.814;2023-01-09T10:54:14;22.27;;;13.13;;
49241;SDS011;35079;52.704;13.814;2023-01-09T10:59:19;22.08;;;13.68;;
49241;SDS011;35079;52.704;13.814;2023-01-09T11:01:45;27.55;;;14.65;;
49241;SDS011;35079;52.704;13.814;2023-01-09T11:04:19;22.50;;;13.38;;
49241;SDS011;35079;52.704;13.814;2023-01-09T11:06:58;22.20;;;12.63;;
49241;SDS011;35079;52.704;13.814;2023-01-09T11:09:26;21.90;;;13.88;;
49241;SDS011;35079;52.704;13.814;2023-01-09T11:11:52;22.40;;;13.60;;
49241;SDS011;35079;52.704;13.814;2023-01-09T11:14:27;21.25;;;13.35;;
49241;SDS011;35079;52.704;13.814;2023-01-09T11:19:26;24.50;;;12.95;;
49241;SDS011;35079;52.704;13.814;2023-01-09T11:22:08;23.30;;;13.30;;
49241;SDS011;35079;52.704;13.814;2023-01-09T11:24:40;22.70;;;12.32;;
49241;SDS011;35079;52.704;13.814;2023-01-09T11:29:38;17.42;;;11.77;;
49241;SDS011;35079;52.704;13.814;2023-01-09T11:32:20;21.88;;;12.27;;
49241;SDS011;35079;52.704;13.814;2023-01-09T11:34:47;20.05;;;11.82;;
49241;SDS011;35079;52.704;13.814;2023-01-09T11:37:16;18.55;;;12.30;;
49241;SDS011;35079;52.704;13.814;2023-01-09T11:39:51;17.55;;;11.20;;
49241;SDS011;35079;52.704;13.814;2023-01-09T11:42:25;15.05;;;10.80;;
49241;SDS011;35079;52.704;13.814;2023-01-09T11:45:20;17.20;;;11.27;;
49241;SDS011;35079;52.704;13.814;2023-01-09T11:47:52;13.77;;;10.23;;
49241;SDS011;35079;52.704;13.814;2023-01-09T11:50:24;15.95;;;10.73;;
49241;SDS011;35079;52.704;13.814;2023-01-09T11:55:35;14.80;;;9.68;;
49241;SDS011;35079;52.704;13.814;2023-01-09T11:58:01;11.80;;;7.90;;
49241;SDS011;35079;52.704;13.814;2023-01-09T12:03:32;16.88;;;9.35;;
49241;SDS011;35079;52.704;13.814;2023-01-09T12:06:29;14.00;;;8.52;;
49241;SDS011;35079;52.704;13.814;2023-01-09T12:21:33;15.55;;;8.30;;
49241;SDS011;35079;52.704;13.814;2023-01-09T12:32:08;8.55;;;6.30;;
49241;SDS011;35079;52.704;13.814;2023-01-09T12:46:17;13.10;;;7.65;;
49241;SDS011;35079;52.704;13.814;2023-01-09T12:48:51;8.90;;;6.30;;
49241;SDS011;35079;52.704;13.814;2023-01-09T13:00:22;6.83;;;5.00;;
49241;SDS011;35079;52.704;13.814;2023-01-09T13:05:27;8.27;;;4.20;;
49241;SDS011;35079;52.704;13.814;2023-01-09T13:08:02;5.63;;;3.45;;
49241;SDS011;35079;52.704;13.814;2023-01-09T13:13:04;4.25;;;3.10;;
49241;SDS011;35079;52.704;13.814;2023-01-09T13:15:36;4.68;;;2.58;;
49241;SDS011;35079;52.704;13.814;2023-01-09T13:20:57;5.47;;;3.10;;
49241;SDS011;35079;52.704;13.814;2023-01-09T13:26:19;5.18;;;2.80;;
49241;SDS011;35079;52.704;13.814;2023-01-09T13:28:47;6.00;;;3.03;;
49241;SDS011;35079;52.704;13.814;2023-01-09T13:33:52;5.00;;;3.03;;
49241;SDS011;35079;52.704;13.814;2023-01-09T13:38:54;9.63;;;3.17;;
49241;SDS011;35079;52.704;13.814;2023-01-09T13:41:22;4.60;;;2.40;;
49241;SDS011;35079;52.704;13.814;2023-01-09T13:46:46;6.18;;;2.70;;
49241;SDS011;35079;52.704;13.814;2023-01-09T13:57:30;6.30;;;2.38;;
49241;SDS011;35079;52.704;13.814;2023-01-09T14:03:24;5.78;;;2.28;;
49241;SDS011;35079;52.704;13.814;2023-01-09T14:08:27;5.07;;;2.40;;
49241;SDS011;35079;52.704;13.814;2023-01-09T14:11:02;6.93;;;2.60;;
49241;SDS011;35079;52.704;13.814;2023-01-09T14:13:32;7.32;;;2.58;;
49241;SDS011;35079;52.704;13.814;2023-01-09T14:16:06;8.88;;;2.67;;
49241;SDS011;35079;52.704;13.814;2023-01-09T14:18:45;6.32;;;2.70;;
49241;SDS011;35079;52.704;13.814;2023-01-09T14:21:25;5.15;;;2.53;;
49241;SDS011;35079;52.704;13.814;2023-01-09T14:24:08;7.78;;;2.45;;
49241;SDS011;35079;52.704;13.814;2023-01-09T14:26:53;6.43;;;2.30;;
49241;SDS011;35079;52.704;13.814;2023-01-09T14:32:10;7.07;;;2.42;;
49241;SDS011;35079;52.704;13.814;2023-01-09T14:34:51;6.35;;;2.45;;
49241;SDS011;35079;52.704;13.814;2023-01-09T14:37:21;6.97;;;2.60;;
49241;SDS011;35079;52.704;13.814;2023-01-09T14:39:54;7.43;;;2.20;;
49241;SDS011;35079;52.704;13.814;2023-01-09T14:42:23;8.45;;;2.55;;
49241;SDS011;35079;52.704;13.814;2023-01-09T14:45:03;5.57;;;2.60;;
49241;SDS011;35079;52.704;13.814;2023-01-09T14:47:44;10.63;;;2.72;;
49241;SDS011;35079;52.704;13.814;2023-01-09T14:53:08;6.40;;;3.40;;
49241;SDS011;35079;52.704;13.814;2023-01-09T14:58:17;8.35;;;3.40;;
49241;SDS011;35079;52.704;13.814;2023-01-09T15:06:39;11.95;;;3.10;;
49241;SDS011;35079;52.704;13.814;2023-01-09T15:09:17;6.72;;;3.05;;
49241;SDS011;35079;52.704;13.814;2023-01-09T15:11:48;6.93;;;3.53;;
49241;SDS011;35079;52.704;13.814;2023-01-09T15:14:27;8.60;;;3.58;;
49241;SDS011;35079;52.704;13.814;2023-01-09T15:16:56;6.80;;;3.53;;
49241;SDS011;35079;52.704;13.814;2023-01-09T15:19:24;5.45;;;2.92;;
49241;SDS011;35079;52.704;13.814;2023-01-09T15:22:50;8.90;;;3.45;;
49241;SDS011;35079;52.704;13.814;2023-01-09T15:24:55;7.00;;;2.90;;
49241;SDS011;35079;52.704;13.814;2023-01-09T15:27:21;5.80;;;3.53;;
49241;SDS011;35079;52.704;13.814;2023-01-09T15:29:48;7.43;;;3.67;;
49241;SDS011;35079;52.704;13.814;2023-01-09T15:32:20;7.82;;;3.35;;
49241;SDS011;35079;52.704;13.814;2023-01-09T15:34:51;8.32;;;3.33;;
49241;SDS011;35079;52.704;13.814;2023-01-09T15:37:29;7.07;;;3.00;;
49241;SDS011;35079;52.704;13.814;2023-01-09T15:43:15;9.60;;;4.00;;
49241;SDS011;35079;52.704;13.814;2023-01-09T15:45:59;9.18;;;3.63;;
49241;SDS011;35079;52.704;13.814;2023-01-09T15:48:26;7.13;;;3.47;;
49241;SDS011;35079;52.704;13.814;2023-01-09T15:51:01;6.63;;;3.97;;
49241;SDS011;35079;52.704;13.814;2023-01-09T15:53:30;5.93;;;3.67;;
49241;SDS011;35079;52.704;13.814;2023-01-09T15:58:32;12.00;;;3.45;;
49241;SDS011;35079;52.704;13.814;2023-01-09T16:01:11;6.15;;;3.58;;
49241;SDS011;35079;52.704;13.814;2023-01-09T16:03:48;8.98;;;3.78;;
49241;SDS011;35079;52.704;13.814;2023-01-09T16:06:25;7.07;;;3.85;;
49241;SDS011;35079;52.704;13.814;2023-01-09T16:08:55;7.85;;;4.20;;
49241;SDS011;35079;52.704;13.814;2023-01-09T16:13:52;7.60;;;4.18;;
49241;SDS011;35079;52.704;13.814;2023-01-09T16:16:22;9.10;;;4.32;;
49241;SDS011;35079;52.704;13.814;2023-01-09T16:18:56;7.30;;;4.28;;
49241;SDS011;35079;52.704;13.814;2023-01-09T16:23:55;10.65;;;4.10;;
49241;SDS011;35079;52.704;13.814;2023-01-09T16:26:24;6.28;;;3.85;;
49241;SDS011;35079;52.704;13.814;2023-01-09T16:28:52;9.57;;;4.38;;
49241;SDS011;35079;52.704;13.814;2023-01-09T16:31:24;8.00;;;4.18;;
49241;SDS011;35079;52.704;13.814;2023-01-09T16:33:55;5.35;;;3.80;;
49241;SDS011;35079;52.704;13.814;2023-01-09T16:36:28;9.60;;;4.20;;
49241;SDS011;35079;52.704;13.814;2023-01-09T16:38:54;10.50;;;4.00;;
49241;SDS011;35079;52.704;13.814;2023-01-09T16:41:21;8.20;;;4.18;;
49241;SDS011;35079;52.704;13.814;2023-01-09T16:46:42;7.90;;;3.70;;
49241;SDS011;35079;52.704;13.814;2023-01-09T16:49:15;9.82;;;3.83;;
49241;SDS011;35079;52.704;13.814;2023-01-09T16:51:43;8.35;;;4.13;;
49241;SDS011;35079;52.704;13.814;2023-01-09T16:56:56;5.93;;;3.85;;
49241;SDS011;35079;52.704;13.814;2023-01-09T17:02:19;13.27;;;4.43;;
49241;SDS011;35079;52.704;13.814;2023-01-09T17:04:45;7.32;;;3.97;;
49241;SDS011;35079;52.704;13.814;2023-01-09T17:07:12;6.03;;;3.92;;
49241;SDS011;35079;52.704;13.814;2023-01-09T17:09:39;13.68;;;4.45;;
49241;SDS011;35079;52.704;13.814;2023-01-09T17:12:04;9.10;;;4.35;;
49241;SDS011;35079;52.704;13.814;2023-01-09T17:14:30;6.63;;;4.03;;
49241;SDS011;35079;52.704;13.814;2023-01-09T17:16:56;8.05;;;4.32;;
49241;SDS011;35079;52.704;13.814;2023-01-09T17:19:22;8.35;;;4.22;;
49241;SDS011;35079;52.704;13.814;2023-01-09T17:21:49;10.60;;;4.25;;
49241;SDS011;35079;52.704;13.814;2023-01-09T17:24:14;8.98;;;4.32;;
49241;SDS011;35079;52.704;13.814;2023-01-09T17:26:59;10.23;;;3.95;;
49241;SDS011;35079;52.704;13.814;2023-01-09T17:29:44;7.78;;;4.60;;
49241;SDS011;35079;52.704;13.814;2023-01-09T17:32:13;7.65;;;4.30;;
49241;SDS011;35079;52.704;13.814;2023-01-09T17:34:40;9.30;;;3.90;;
49241;SDS011;35079;52.704;13.814;2023-01-09T17:37:07;7.82;;;4.13;;
49241;SDS011;35079;52.704;13.814;2023-01-09T17:39:37;10.13;;;3.83;;
49241;SDS011;35079;52.704;13.814;2023-01-09T17:42:02;8.57;;;4.07;;
49241;SDS011;35079;52.704;13.814;2023-01-09T17:44:28;8.93;;;4.60;;
49241;SDS011;35079;52.704;13.814;2023-01-09T17:46:54;9.23;;;4.10;;
49241;SDS011;35079;52.704;13.814;2023-01-09T17:49:20;8.73;;;4.68;;
49241;SDS011;35079;52.704;13.814;2023-01-09T17:51:46;9.30;;;4.72;;